sensor_id;sensor_type;location;lat;lon;timestamp;P1;durP1;ratioP1;P2;durP2;ratioP2
7879;SDS011;3985;49.366;2.738;2022-10-31T00:01:25;15.00;;;11.75;;
7879;SDS011;3985;49.366;2.738;2022-10-31T00:03:53;12.00;;;11.75;;
7879;SDS011;3985;49.366;2.738;2022-10-31T00:06:23;12.25;;;11.00;;
7879;SDS011;3985;49.366;2.738;2022-10-31T00:08:51;14.50;;;14.50;;
7879;SDS011;3985;49.366;2.738;2022-10-31T00:11:20;12.50;;;12.00;;
7879;SDS011;3985;49.366;2.738;2022-10-31T00:13:48;14.00;;;14.00;;
7879;SDS011;3985;49.366;2.738;2022-10-31T00:16:16;15.25;;;13.00;;
7879;SDS011;3985;49.366;2.738;2022-10-31T00:18:47;15.75;;;13.75;;
7879;SDS011;3985;49.366;2.738;2022-10-31T00:21:16;14.00;;;12.25;;
7879;SDS011;3985;49.366;2.738;2022-10-31T00:23:45;14.75;;;14.75;;
7879;SDS011;3985;49.366;2.738;2022-10-31T00:26:13;20.25;;;17.25;;
7879;SDS011;3985;49.366;2.738;2022-10-31T00:28:40;14.50;;;13.00;;
7879;SDS011;3985;49.366;2.738;2022-10-31T00:31:08;17.00;;;15.25;;
7879;SDS011;3985;49.366;2.738;2022-10-31T00:33:37;11.75;;;11.75;;
7879;SDS011;3985;49.366;2.738;2022-10-31T00:36:05;22.25;;;17.00;;
7879;SDS011;3985;49.366;2.738;2022-10-31T00:38:34;21.00;;;17.00;;
7879;SDS011;3985;49.366;2.738;2022-10-31T00:41:03;12.50;;;12.50;;
7879;SDS011;3985;49.366;2.738;2022-10-31T00:43:31;15.50;;;15.50;;
7879;SDS011;3985;49.366;2.738;2022-10-31T00:45:59;19.00;;;17.75;;
7879;SDS011;3985;49.366;2.738;2022-10-31T00:48:26;19.00;;;17.50;;
7879;SDS011;3985;49.366;2.738;2022-10-31T00:50:54;14.75;;;12.00;;
7879;SDS011;3985;49.366;2.738;2022-10-31T00:53:21;13.75;;;12.00;;
7879;SDS011;3985;49.366;2.738;2022-10-31T00:55:49;17.50;;;17.50;;
7879;SDS011;3985;49.366;2.738;2022-10-31T00:58:18;15.50;;;15.50;;
7879;SDS011;3985;49.366;2.738;2022-10-31T01:00:46;15.00;;;13.75;;
7879;SDS011;3985;49.366;2.738;2022-10-31T01:03:19;19.25;;;18.25;;
7879;SDS011;3985;49.366;2.738;2022-10-31T01:05:55;19.00;;;18.75;;
7879;SDS011;3985;49.366;2.738;2022-10-31T01:08:23;15.00;;;15.00;;
7879;SDS011;3985;49.366;2.738;2022-10-31T01:11:01;11.75;;;11.75;;
7879;SDS011;3985;49.366;2.738;2022-10-31T01:13:34;16.25;;;16.25;;
7879;SDS011;3985;49.366;2.738;2022-10-31T01:16:05;16.50;;;16.50;;
7879;SDS011;3985;49.366;2.738;2022-10-31T01:18:34;14.00;;;12.25;;
7879;SDS011;3985;49.366;2.738;2022-10-31T01:21:06;17.50;;;17.50;;
7879;SDS011;3985;49.366;2.738;2022-10-31T01:23:35;16.00;;;15.50;;
7879;SDS011;3985;49.366;2.738;2022-10-31T01:26:04;16.50;;;13.75;;
7879;SDS011;3985;49.366;2.738;2022-10-31T01:28:35;16.75;;;14.50;;
7879;SDS011;3985;49.366;2.738;2022-10-31T01:31:04;17.25;;;14.75;;
7879;SDS011;3985;49.366;2.738;2022-10-31T01:33:32;15.25;;;15.25;;
7879;SDS011;3985;49.366;2.738;2022-10-31T01:36:00;12.00;;;12.00;;
7879;SDS011;3985;49.366;2.738;2022-10-31T01:38:28;18.00;;;14.75;;
7879;SDS011;3985;49.366;2.738;2022-10-31T01:40:55;15.00;;;13.00;;
7879;SDS011;3985;49.366;2.738;2022-10-31T01:43:22;15.25;;;15.25;;
7879;SDS011;3985;49.366;2.738;2022-10-31T01:45:52;17.00;;;17.00;;
7879;SDS011;3985;49.366;2.738;2022-10-31T01:48:21;21.00;;;21.00;;
7879;SDS011;3985;49.366;2.738;2022-10-31T01:50:51;15.75;;;13.00;;
7879;SDS011;3985;49.366;2.738;2022-10-31T01:53:21;18.00;;;16.50;;
7879;SDS011;3985;49.366;2.738;2022-10-31T01:55:49;16.75;;;14.50;;
7879;SDS011;3985;49.366;2.738;2022-10-31T01:58:20;17.50;;;17.00;;
7879;SDS011;3985;49.366;2.738;2022-10-31T02:00:53;27.25;;;21.25;;
7879;SDS011;3985;49.366;2.738;2022-10-31T02:03:24;15.00;;;14.25;;
7879;SDS011;3985;49.366;2.738;2022-10-31T02:05:53;20.50;;;20.25;;
7879;SDS011;3985;49.366;2.738;2022-10-31T02:08:23;19.25;;;19.25;;
7879;SDS011;3985;49.366;2.738;2022-10-31T02:10:53;13.75;;;13.75;;
7879;SDS011;3985;49.366;2.738;2022-10-31T02:13:21;27.50;;;20.25;;
7879;SDS011;3985;49.366;2.738;2022-10-31T02:15:49;21.75;;;21.75;;
7879;SDS011;3985;49.366;2.738;2022-10-31T02:18:26;21.50;;;21.50;;
7879;SDS011;3985;49.366;2.738;2022-10-31T02:20:57;25.00;;;20.25;;
7879;SDS011;3985;49.366;2.738;2022-10-31T02:26:32;25.00;;;25.00;;
7879;SDS011;3985;49.366;2.738;2022-10-31T02:29:16;20.00;;;20.00;;
7879;SDS011;3985;49.366;2.738;2022-10-31T02:32:07;18.00;;;18.00;;
7879;SDS011;3985;49.366;2.738;2022-10-31T02:34:37;22.50;;;20.00;;
7879;SDS011;3985;49.366;2.738;2022-10-31T02:37:11;17.50;;;16.50;;
7879;SDS011;3985;49.366;2.738;2022-10-31T02:39:42;20.75;;;19.25;;
7879;SDS011;3985;49.366;2.738;2022-10-31T02:42:15;22.25;;;20.00;;
7879;SDS011;3985;49.366;2.738;2022-10-31T02:44:45;19.50;;;19.25;;
7879;SDS011;3985;49.366;2.738;2022-10-31T02:47:19;21.00;;;17.00;;
7879;SDS011;3985;49.366;2.738;2022-10-31T02:49:53;18.50;;;16.75;;
7879;SDS011;3985;49.366;2.738;2022-10-31T02:52:23;21.50;;;18.50;;
7879;SDS011;3985;49.366;2.738;2022-10-31T02:54:53;20.75;;;20.75;;
7879;SDS011;3985;49.366;2.738;2022-10-31T02:57:22;14.75;;;13.50;;
7879;SDS011;3985;49.366;2.738;2022-10-31T02:59:52;24.75;;;21.00;;
7879;SDS011;3985;49.366;2.738;2022-10-31T03:05:17;20.50;;;20.50;;
7879;SDS011;3985;49.366;2.738;2022-10-31T03:08:06;25.50;;;22.25;;
7879;SDS011;3985;49.366;2.738;2022-10-31T03:10:40;15.00;;;15.00;;
7879;SDS011;3985;49.366;2.738;2022-10-31T03:13:10;18.00;;;17.25;;
7879;SDS011;3985;49.366;2.738;2022-10-31T03:15:43;19.75;;;19.75;;
7879;SDS011;3985;49.366;2.738;2022-10-31T03:18:15;13.50;;;13.00;;
7879;SDS011;3985;49.366;2.738;2022-10-31T03:20:48;16.00;;;16.00;;
7879;SDS011;3985;49.366;2.738;2022-10-31T03:23:19;18.25;;;16.50;;
7879;SDS011;3985;49.366;2.738;2022-10-31T03:25:49;18.75;;;18.75;;
7879;SDS011;3985;49.366;2.738;2022-10-31T03:28:18;16.75;;;15.50;;
7879;SDS011;3985;49.366;2.738;2022-10-31T03:30:50;20.50;;;15.50;;
7879;SDS011;3985;49.366;2.738;2022-10-31T03:33:23;18.50;;;17.75;;
7879;SDS011;3985;49.366;2.738;2022-10-31T03:35:55;20.25;;;18.25;;
7879;SDS011;3985;49.366;2.738;2022-10-31T03:38:24;18.50;;;17.00;;
7879;SDS011;3985;49.366;2.738;2022-10-31T03:40:52;18.00;;;17.00;;
7879;SDS011;3985;49.366;2.738;2022-10-31T03:43:24;15.25;;;15.25;;
7879;SDS011;3985;49.366;2.738;2022-10-31T03:45:54;17.25;;;16.75;;
7879;SDS011;3985;49.366;2.738;2022-10-31T03:48:22;21.00;;;19.75;;
7879;SDS011;3985;49.366;2.738;2022-10-31T03:50:52;16.00;;;15.75;;
7879;SDS011;3985;49.366;2.738;2022-10-31T03:53:24;15.75;;;15.75;;
7879;SDS011;3985;49.366;2.738;2022-10-31T03:55:57;22.00;;;17.25;;
7879;SDS011;3985;49.366;2.738;2022-10-31T03:58:31;13.75;;;13.75;;
7879;SDS011;3985;49.366;2.738;2022-10-31T04:01:05;20.50;;;17.75;;
7879;SDS011;3985;49.366;2.738;2022-10-31T04:03:35;15.75;;;15.75;;
7879;SDS011;3985;49.366;2.738;2022-10-31T04:06:06;19.75;;;17.50;;
7879;SDS011;3985;49.366;2.738;2022-10-31T04:08:36;13.67;;;12.00;;
7879;SDS011;3985;49.366;2.738;2022-10-31T04:11:06;13.00;;;13.00;;
7879;SDS011;3985;49.366;2.738;2022-10-31T04:13:37;16.00;;;16.00;;
7879;SDS011;3985;49.366;2.738;2022-10-31T04:16:07;20.00;;;15.00;;
7879;SDS011;3985;49.366;2.738;2022-10-31T04:18:35;17.25;;;16.25;;
7879;SDS011;3985;49.366;2.738;2022-10-31T04:21:04;12.33;;;12.33;;
7879;SDS011;3985;49.366;2.738;2022-10-31T04:23:34;18.75;;;16.25;;
7879;SDS011;3985;49.366;2.738;2022-10-31T04:26:02;17.25;;;16.75;;
7879;SDS011;3985;49.366;2.738;2022-10-31T04:28:30;18.00;;;16.25;;
7879;SDS011;3985;49.366;2.738;2022-10-31T04:30:58;16.25;;;16.25;;
7879;SDS011;3985;49.366;2.738;2022-10-31T04:33:26;14.00;;;14.00;;
7879;SDS011;3985;49.366;2.738;2022-10-31T04:35:55;14.75;;;14.75;;
7879;SDS011;3985;49.366;2.738;2022-10-31T04:38:24;20.00;;;20.00;;
7879;SDS011;3985;49.366;2.738;2022-10-31T04:40:51;16.00;;;16.00;;
7879;SDS011;3985;49.366;2.738;2022-10-31T04:43:19;17.33;;;15.00;;
7879;SDS011;3985;49.366;2.738;2022-10-31T04:45:47;16.33;;;16.00;;
7879;SDS011;3985;49.366;2.738;2022-10-31T04:48:14;13.67;;;13.00;;
7879;SDS011;3985;49.366;2.738;2022-10-31T04:50:42;13.67;;;13.33;;
7879;SDS011;3985;49.366;2.738;2022-10-31T04:53:10;17.33;;;17.33;;
7879;SDS011;3985;49.366;2.738;2022-10-31T04:55:39;18.67;;;15.00;;
7879;SDS011;3985;49.366;2.738;2022-10-31T04:58:06;14.00;;;13.00;;
7879;SDS011;3985;49.366;2.738;2022-10-31T05:00:34;21.33;;;18.67;;
7879;SDS011;3985;49.366;2.738;2022-10-31T05:03:01;10.33;;;10.33;;
7879;SDS011;3985;49.366;2.738;2022-10-31T05:05:30;12.67;;;12.67;;
7879;SDS011;3985;49.366;2.738;2022-10-31T05:07:58;14.33;;;14.33;;
7879;SDS011;3985;49.366;2.738;2022-10-31T05:10:26;16.00;;;14.67;;
7879;SDS011;3985;49.366;2.738;2022-10-31T05:12:56;18.33;;;16.67;;
7879;SDS011;3985;49.366;2.738;2022-10-31T05:15:25;16.33;;;16.00;;
7879;SDS011;3985;49.366;2.738;2022-10-31T05:17:54;14.00;;;13.00;;
7879;SDS011;3985;49.366;2.738;2022-10-31T05:20:23;22.67;;;20.67;;
7879;SDS011;3985;49.366;2.738;2022-10-31T05:22:52;18.33;;;17.00;;
7879;SDS011;3985;49.366;2.738;2022-10-31T05:25:21;13.00;;;13.00;;
7879;SDS011;3985;49.366;2.738;2022-10-31T05:27:51;14.67;;;14.67;;
7879;SDS011;3985;49.366;2.738;2022-10-31T05:30:21;19.33;;;16.00;;
7879;SDS011;3985;49.366;2.738;2022-10-31T05:32:50;18.00;;;16.33;;
7879;SDS011;3985;49.366;2.738;2022-10-31T05:35:19;15.00;;;15.00;;
7879;SDS011;3985;49.366;2.738;2022-10-31T05:37:47;14.67;;;14.67;;
7879;SDS011;3985;49.366;2.738;2022-10-31T05:40:17;14.00;;;14.00;;
7879;SDS011;3985;49.366;2.738;2022-10-31T05:42:50;15.33;;;14.00;;
7879;SDS011;3985;49.366;2.738;2022-10-31T05:45:18;16.00;;;16.00;;
7879;SDS011;3985;49.366;2.738;2022-10-31T05:47:53;17.33;;;17.33;;
7879;SDS011;3985;49.366;2.738;2022-10-31T05:50:22;15.00;;;13.33;;
7879;SDS011;3985;49.366;2.738;2022-10-31T05:52:54;17.33;;;15.67;;
7879;SDS011;3985;49.366;2.738;2022-10-31T05:55:22;17.33;;;17.33;;
7879;SDS011;3985;49.366;2.738;2022-10-31T05:57:50;15.33;;;15.33;;
7879;SDS011;3985;49.366;2.738;2022-10-31T06:00:18;15.00;;;15.00;;
7879;SDS011;3985;49.366;2.738;2022-10-31T06:02:48;15.00;;;15.00;;
7879;SDS011;3985;49.366;2.738;2022-10-31T06:05:16;13.33;;;13.33;;
7879;SDS011;3985;49.366;2.738;2022-10-31T06:07:44;19.33;;;15.00;;
7879;SDS011;3985;49.366;2.738;2022-10-31T06:10:11;16.67;;;14.00;;
7879;SDS011;3985;49.366;2.738;2022-10-31T06:12:39;14.67;;;14.67;;
7879;SDS011;3985;49.366;2.738;2022-10-31T06:15:07;10.67;;;10.00;;
7879;SDS011;3985;49.366;2.738;2022-10-31T06:17:35;13.33;;;13.33;;
7879;SDS011;3985;49.366;2.738;2022-10-31T06:20:07;14.67;;;14.67;;
7879;SDS011;3985;49.366;2.738;2022-10-31T06:22:35;18.67;;;16.67;;
7879;SDS011;3985;49.366;2.738;2022-10-31T06:25:05;16.33;;;16.33;;
7879;SDS011;3985;49.366;2.738;2022-10-31T06:27:33;16.67;;;16.33;;
7879;SDS011;3985;49.366;2.738;2022-10-31T06:30:01;16.00;;;16.00;;
7879;SDS011;3985;49.366;2.738;2022-10-31T06:32:28;16.00;;;16.00;;
7879;SDS011;3985;49.366;2.738;2022-10-31T06:34:56;19.00;;;19.00;;
7879;SDS011;3985;49.366;2.738;2022-10-31T06:37:25;16.00;;;16.00;;
7879;SDS011;3985;49.366;2.738;2022-10-31T06:39:52;19.67;;;19.67;;
7879;SDS011;3985;49.366;2.738;2022-10-31T06:42:20;21.67;;;19.67;;
7879;SDS011;3985;49.366;2.738;2022-10-31T06:44:47;16.33;;;15.00;;
7879;SDS011;3985;49.366;2.738;2022-10-31T06:47:15;21.00;;;21.00;;
7879;SDS011;3985;49.366;2.738;2022-10-31T06:49:42;18.33;;;15.33;;
7879;SDS011;3985;49.366;2.738;2022-10-31T06:52:09;16.67;;;14.67;;
7879;SDS011;3985;49.366;2.738;2022-10-31T06:54:38;16.00;;;16.00;;
7879;SDS011;3985;49.366;2.738;2022-10-31T06:57:07;17.00;;;17.00;;
7879;SDS011;3985;49.366;2.738;2022-10-31T06:59:34;16.67;;;15.00;;
7879;SDS011;3985;49.366;2.738;2022-10-31T07:02:02;20.33;;;20.33;;
7879;SDS011;3985;49.366;2.738;2022-10-31T07:04:30;19.67;;;18.33;;
7879;SDS011;3985;49.366;2.738;2022-10-31T07:06:57;16.33;;;16.33;;
7879;SDS011;3985;49.366;2.738;2022-10-31T07:09:25;21.67;;;20.00;;
7879;SDS011;3985;49.366;2.738;2022-10-31T07:11:54;21.00;;;20.00;;
7879;SDS011;3985;49.366;2.738;2022-10-31T07:14:21;22.67;;;20.67;;
7879;SDS011;3985;49.366;2.738;2022-10-31T07:16:49;27.00;;;23.67;;
7879;SDS011;3985;49.366;2.738;2022-10-31T07:19:16;29.67;;;22.00;;
7879;SDS011;3985;49.366;2.738;2022-10-31T07:21:48;25.33;;;25.33;;
7879;SDS011;3985;49.366;2.738;2022-10-31T07:24:15;23.33;;;23.33;;
7879;SDS011;3985;49.366;2.738;2022-10-31T07:26:45;18.00;;;16.67;;
7879;SDS011;3985;49.366;2.738;2022-10-31T07:29:14;21.33;;;19.67;;
7879;SDS011;3985;49.366;2.738;2022-10-31T07:31:52;27.67;;;25.00;;
7879;SDS011;3985;49.366;2.738;2022-10-31T07:34:19;29.67;;;26.67;;
7879;SDS011;3985;49.366;2.738;2022-10-31T07:36:47;29.50;;;28.50;;
7879;SDS011;3985;49.366;2.738;2022-10-31T07:39:14;25.33;;;25.33;;
7879;SDS011;3985;49.366;2.738;2022-10-31T07:41:41;23.67;;;23.67;;
7879;SDS011;3985;49.366;2.738;2022-10-31T07:44:09;28.67;;;25.33;;
7879;SDS011;3985;49.366;2.738;2022-10-31T07:46:38;32.33;;;29.00;;
7879;SDS011;3985;49.366;2.738;2022-10-31T07:49:06;30.67;;;28.67;;
7879;SDS011;3985;49.366;2.738;2022-10-31T07:51:33;30.33;;;29.00;;
7879;SDS011;3985;49.366;2.738;2022-10-31T07:54:00;25.33;;;24.67;;
7879;SDS011;3985;49.366;2.738;2022-10-31T07:56:28;39.00;;;32.00;;
7879;SDS011;3985;49.366;2.738;2022-10-31T07:58:58;29.33;;;28.00;;
7879;SDS011;3985;49.366;2.738;2022-10-31T08:01:25;27.00;;;27.00;;
7879;SDS011;3985;49.366;2.738;2022-10-31T08:03:54;28.00;;;28.00;;
7879;SDS011;3985;49.366;2.738;2022-10-31T08:06:21;24.33;;;24.33;;
7879;SDS011;3985;49.366;2.738;2022-10-31T08:08:49;26.67;;;25.00;;
7879;SDS011;3985;49.366;2.738;2022-10-31T08:11:16;30.67;;;28.67;;
7879;SDS011;3985;49.366;2.738;2022-10-31T08:13:44;29.00;;;25.33;;
7879;SDS011;3985;49.366;2.738;2022-10-31T08:16:12;28.67;;;28.67;;
7879;SDS011;3985;49.366;2.738;2022-10-31T08:18:39;27.67;;;27.67;;
7879;SDS011;3985;49.366;2.738;2022-10-31T08:21:09;22.67;;;22.67;;
7879;SDS011;3985;49.366;2.738;2022-10-31T08:23:37;28.50;;;25.50;;
7879;SDS011;3985;49.366;2.738;2022-10-31T08:26:04;28.50;;;25.00;;
7879;SDS011;3985;49.366;2.738;2022-10-31T08:28:32;24.00;;;24.00;;
7879;SDS011;3985;49.366;2.738;2022-10-31T08:30:59;32.75;;;30.75;;
7879;SDS011;3985;49.366;2.738;2022-10-31T08:33:27;23.50;;;23.50;;
7879;SDS011;3985;49.366;2.738;2022-10-31T08:35:54;25.50;;;25.00;;
7879;SDS011;3985;49.366;2.738;2022-10-31T08:38:25;32.00;;;28.75;;
7879;SDS011;3985;49.366;2.738;2022-10-31T08:40:52;30.50;;;26.00;;
7879;SDS011;3985;49.366;2.738;2022-10-31T08:43:19;38.25;;;33.00;;
7879;SDS011;3985;49.366;2.738;2022-10-31T08:45:47;30.75;;;30.25;;
7879;SDS011;3985;49.366;2.738;2022-10-31T08:48:16;34.00;;;32.50;;
7879;SDS011;3985;49.366;2.738;2022-10-31T08:50:44;32.25;;;30.50;;
7879;SDS011;3985;49.366;2.738;2022-10-31T08:53:12;39.00;;;33.33;;
7879;SDS011;3985;49.366;2.738;2022-10-31T08:55:44;37.67;;;33.33;;
7879;SDS011;3985;49.366;2.738;2022-10-31T08:58:13;39.67;;;35.00;;
7879;SDS011;3985;49.366;2.738;2022-10-31T09:00:42;32.00;;;30.00;;
7879;SDS011;3985;49.366;2.738;2022-10-31T09:03:13;39.67;;;35.00;;
7879;SDS011;3985;49.366;2.738;2022-10-31T09:06:01;34.67;;;33.00;;
7879;SDS011;3985;49.366;2.738;2022-10-31T09:08:34;39.67;;;35.33;;
7879;SDS011;3985;49.366;2.738;2022-10-31T09:11:08;30.33;;;30.33;;
7879;SDS011;3985;49.366;2.738;2022-10-31T09:13:35;37.67;;;34.33;;
7879;SDS011;3985;49.366;2.738;2022-10-31T09:16:05;38.33;;;35.00;;
7879;SDS011;3985;49.366;2.738;2022-10-31T09:18:33;38.33;;;35.67;;
7879;SDS011;3985;49.366;2.738;2022-10-31T09:21:00;40.00;;;35.00;;
7879;SDS011;3985;49.366;2.738;2022-10-31T09:23:30;38.67;;;35.00;;
7879;SDS011;3985;49.366;2.738;2022-10-31T09:25:58;34.50;;;33.00;;
7879;SDS011;3985;49.366;2.738;2022-10-31T09:28:30;33.75;;;32.75;;
7879;SDS011;3985;49.366;2.738;2022-10-31T09:31:00;35.25;;;33.00;;
7879;SDS011;3985;49.366;2.738;2022-10-31T09:33:28;33.25;;;32.50;;
7879;SDS011;3985;49.366;2.738;2022-10-31T09:35:57;31.25;;;30.00;;
7879;SDS011;3985;49.366;2.738;2022-10-31T09:38:25;33.00;;;32.75;;
7879;SDS011;3985;49.366;2.738;2022-10-31T09:40:54;34.25;;;33.00;;
7879;SDS011;3985;49.366;2.738;2022-10-31T09:43:31;36.50;;;35.00;;
7879;SDS011;3985;49.366;2.738;2022-10-31T09:46:04;26.75;;;26.75;;
7879;SDS011;3985;49.366;2.738;2022-10-31T09:48:42;35.25;;;32.50;;
7879;SDS011;3985;49.366;2.738;2022-10-31T09:51:31;34.25;;;32.00;;
7879;SDS011;3985;49.366;2.738;2022-10-31T09:54:02;38.00;;;32.75;;
7879;SDS011;3985;49.366;2.738;2022-10-31T09:56:33;32.75;;;30.50;;
7879;SDS011;3985;49.366;2.738;2022-10-31T09:59:03;29.75;;;27.25;;
7879;SDS011;3985;49.366;2.738;2022-10-31T10:01:34;34.75;;;29.75;;
7879;SDS011;3985;49.366;2.738;2022-10-31T10:04:10;32.50;;;29.75;;
7879;SDS011;3985;49.366;2.738;2022-10-31T10:06:48;28.75;;;28.00;;
7879;SDS011;3985;49.366;2.738;2022-10-31T10:09:17;28.25;;;27.25;;
7879;SDS011;3985;49.366;2.738;2022-10-31T10:11:49;26.25;;;25.75;;
7879;SDS011;3985;49.366;2.738;2022-10-31T10:14:32;30.00;;;26.50;;
7879;SDS011;3985;49.366;2.738;2022-10-31T10:17:11;19.25;;;19.25;;
7879;SDS011;3985;49.366;2.738;2022-10-31T10:19:52;28.50;;;26.50;;
7879;SDS011;3985;49.366;2.738;2022-10-31T10:22:32;26.50;;;26.50;;
7879;SDS011;3985;49.366;2.738;2022-10-31T10:25:09;27.75;;;24.25;;
7879;SDS011;3985;49.366;2.738;2022-10-31T10:27:55;21.75;;;20.00;;
7879;SDS011;3985;49.366;2.738;2022-10-31T10:30:32;24.50;;;24.50;;
7879;SDS011;3985;49.366;2.738;2022-10-31T10:33:04;22.75;;;21.25;;
7879;SDS011;3985;49.366;2.738;2022-10-31T10:35:38;22.00;;;22.00;;
7879;SDS011;3985;49.366;2.738;2022-10-31T10:38:11;30.25;;;27.50;;
7879;SDS011;3985;49.366;2.738;2022-10-31T10:40:43;26.50;;;25.00;;
7879;SDS011;3985;49.366;2.738;2022-10-31T10:43:20;28.50;;;27.00;;
7879;SDS011;3985;49.366;2.738;2022-10-31T10:45:58;27.50;;;24.75;;
7879;SDS011;3985;49.366;2.738;2022-10-31T10:48:58;27.00;;;27.00;;
7879;SDS011;3985;49.366;2.738;2022-10-31T10:51:34;27.75;;;25.00;;
7879;SDS011;3985;49.366;2.738;2022-10-31T10:54:10;29.00;;;24.00;;
7879;SDS011;3985;49.366;2.738;2022-10-31T10:56:53;24.00;;;21.25;;
7879;SDS011;3985;49.366;2.738;2022-10-31T10:59:27;25.50;;;23.00;;
7879;SDS011;3985;49.366;2.738;2022-10-31T11:01:58;20.50;;;20.50;;
7879;SDS011;3985;49.366;2.738;2022-10-31T11:04:28;21.25;;;15.75;;
7879;SDS011;3985;49.366;2.738;2022-10-31T11:06:58;19.00;;;17.25;;
7879;SDS011;3985;49.366;2.738;2022-10-31T11:09:27;21.75;;;17.50;;
7879;SDS011;3985;49.366;2.738;2022-10-31T11:11:55;18.50;;;17.50;;
7879;SDS011;3985;49.366;2.738;2022-10-31T11:14:22;15.75;;;12.75;;
7879;SDS011;3985;49.366;2.738;2022-10-31T11:16:51;13.50;;;13.50;;
7879;SDS011;3985;49.366;2.738;2022-10-31T11:19:22;16.00;;;15.75;;
7879;SDS011;3985;49.366;2.738;2022-10-31T11:21:52;18.75;;;18.75;;
7879;SDS011;3985;49.366;2.738;2022-10-31T11:24:21;21.00;;;20.40;;
7879;SDS011;3985;49.366;2.738;2022-10-31T11:26:51;16.80;;;16.40;;
7879;SDS011;3985;49.366;2.738;2022-10-31T11:29:29;17.40;;;14.00;;
7879;SDS011;3985;49.366;2.738;2022-10-31T11:31:56;11.60;;;11.60;;
7879;SDS011;3985;49.366;2.738;2022-10-31T11:34:30;15.00;;;14.20;;
7879;SDS011;3985;49.366;2.738;2022-10-31T11:37:02;15.00;;;15.00;;
7879;SDS011;3985;49.366;2.738;2022-10-31T11:39:31;17.20;;;14.20;;
7879;SDS011;3985;49.366;2.738;2022-10-31T11:41:59;14.20;;;13.80;;
7879;SDS011;3985;49.366;2.738;2022-10-31T11:44:28;13.60;;;13.60;;
7879;SDS011;3985;49.366;2.738;2022-10-31T11:46:58;14.80;;;14.80;;
7879;SDS011;3985;49.366;2.738;2022-10-31T11:49:28;15.20;;;14.20;;
7879;SDS011;3985;49.366;2.738;2022-10-31T11:52:00;15.60;;;13.80;;
7879;SDS011;3985;49.366;2.738;2022-10-31T11:54:32;12.20;;;12.20;;
7879;SDS011;3985;49.366;2.738;2022-10-31T11:57:01;18.60;;;15.60;;
7879;SDS011;3985;49.366;2.738;2022-10-31T11:59:29;9.80;;;9.80;;
7879;SDS011;3985;49.366;2.738;2022-10-31T12:01:58;6.00;;;4.20;;
7879;SDS011;3985;49.366;2.738;2022-10-31T12:07:13;11.80;;;10.00;;
7879;SDS011;3985;49.366;2.738;2022-10-31T12:09:40;8.80;;;8.80;;
7879;SDS011;3985;49.366;2.738;2022-10-31T12:15:16;13.00;;;9.80;;
7879;SDS011;3985;49.366;2.738;2022-10-31T12:17:53;13.20;;;10.20;;
7879;SDS011;3985;49.366;2.738;2022-10-31T12:20:32;10.20;;;7.60;;
7879;SDS011;3985;49.366;2.738;2022-10-31T12:23:06;9.80;;;9.80;;
7879;SDS011;3985;49.366;2.738;2022-10-31T12:25:41;10.40;;;9.20;;
7879;SDS011;3985;49.366;2.738;2022-10-31T12:28:28;10.20;;;9.80;;
7879;SDS011;3985;49.366;2.738;2022-10-31T12:31:26;8.60;;;8.60;;
7879;SDS011;3985;49.366;2.738;2022-10-31T12:34:02;9.20;;;7.20;;
7879;SDS011;3985;49.366;2.738;2022-10-31T12:36:56;7.40;;;7.40;;
7879;SDS011;3985;49.366;2.738;2022-10-31T12:39:30;8.00;;;8.00;;
7879;SDS011;3985;49.366;2.738;2022-10-31T12:42:07;10.40;;;8.00;;
7879;SDS011;3985;49.366;2.738;2022-10-31T12:44:55;13.60;;;10.40;;
7879;SDS011;3985;49.366;2.738;2022-10-31T12:47:35;10.40;;;9.00;;
7879;SDS011;3985;49.366;2.738;2022-10-31T12:50:21;7.20;;;7.20;;
7879;SDS011;3985;49.366;2.738;2022-10-31T12:52:59;11.00;;;9.80;;
7879;SDS011;3985;49.366;2.738;2022-10-31T12:55:40;8.00;;;7.60;;
7879;SDS011;3985;49.366;2.738;2022-10-31T12:58:14;8.40;;;8.00;;
7879;SDS011;3985;49.366;2.738;2022-10-31T13:00:47;9.00;;;7.40;;
7879;SDS011;3985;49.366;2.738;2022-10-31T13:03:20;10.00;;;10.00;;
7879;SDS011;3985;49.366;2.738;2022-10-31T13:05:51;10.20;;;8.40;;
7879;SDS011;3985;49.366;2.738;2022-10-31T13:08:24;11.20;;;10.80;;
7879;SDS011;3985;49.366;2.738;2022-10-31T13:10:57;8.00;;;8.00;;
7879;SDS011;3985;49.366;2.738;2022-10-31T13:13:30;9.60;;;7.80;;
7879;SDS011;3985;49.366;2.738;2022-10-31T13:16:03;10.00;;;7.80;;
7879;SDS011;3985;49.366;2.738;2022-10-31T13:18:37;6.60;;;6.60;;
7879;SDS011;3985;49.366;2.738;2022-10-31T13:21:10;8.40;;;8.40;;
7879;SDS011;3985;49.366;2.738;2022-10-31T13:23:43;8.60;;;8.60;;
7879;SDS011;3985;49.366;2.738;2022-10-31T13:26:12;10.80;;;10.40;;
7879;SDS011;3985;49.366;2.738;2022-10-31T13:28:43;7.00;;;6.20;;
7879;SDS011;3985;49.366;2.738;2022-10-31T13:31:13;6.40;;;6.40;;
7879;SDS011;3985;49.366;2.738;2022-10-31T13:33:41;8.80;;;8.00;;
7879;SDS011;3985;49.366;2.738;2022-10-31T13:36:15;7.80;;;6.80;;
7879;SDS011;3985;49.366;2.738;2022-10-31T13:38:50;8.20;;;8.20;;
7879;SDS011;3985;49.366;2.738;2022-10-31T13:41:25;11.20;;;8.20;;
7879;SDS011;3985;49.366;2.738;2022-10-31T13:44:00;9.60;;;8.60;;
7879;SDS011;3985;49.366;2.738;2022-10-31T13:46:36;10.40;;;8.80;;
7879;SDS011;3985;49.366;2.738;2022-10-31T13:49:20;9.80;;;7.00;;
7879;SDS011;3985;49.366;2.738;2022-10-31T13:52:11;10.20;;;7.40;;
7879;SDS011;3985;49.366;2.738;2022-10-31T13:54:43;8.40;;;8.40;;
7879;SDS011;3985;49.366;2.738;2022-10-31T13:57:16;9.40;;;9.40;;
7879;SDS011;3985;49.366;2.738;2022-10-31T13:59:47;9.80;;;9.20;;
7879;SDS011;3985;49.366;2.738;2022-10-31T14:02:16;7.60;;;7.60;;
7879;SDS011;3985;49.366;2.738;2022-10-31T14:04:52;7.40;;;7.40;;
7879;SDS011;3985;49.366;2.738;2022-10-31T14:07:22;4.40;;;4.40;;
7879;SDS011;3985;49.366;2.738;2022-10-31T14:09:57;9.80;;;9.60;;
7879;SDS011;3985;49.366;2.738;2022-10-31T14:12:28;8.20;;;8.00;;
7879;SDS011;3985;49.366;2.738;2022-10-31T14:14:57;9.80;;;9.80;;
7879;SDS011;3985;49.366;2.738;2022-10-31T14:17:31;6.80;;;6.80;;
7879;SDS011;3985;49.366;2.738;2022-10-31T14:22:52;11.80;;;10.60;;
7879;SDS011;3985;49.366;2.738;2022-10-31T14:25:28;9.80;;;9.80;;
7879;SDS011;3985;49.366;2.738;2022-10-31T14:27:57;11.20;;;11.20;;
7879;SDS011;3985;49.366;2.738;2022-10-31T14:30:26;8.60;;;8.60;;
7879;SDS011;3985;49.366;2.738;2022-10-31T14:32:55;9.40;;;7.60;;
7879;SDS011;3985;49.366;2.738;2022-10-31T14:35:26;9.20;;;7.40;;
7879;SDS011;3985;49.366;2.738;2022-10-31T14:41:06;10.20;;;10.20;;
7879;SDS011;3985;49.366;2.738;2022-10-31T14:43:50;11.80;;;10.60;;
7879;SDS011;3985;49.366;2.738;2022-10-31T14:46:32;12.20;;;12.20;;
7879;SDS011;3985;49.366;2.738;2022-10-31T14:49:11;11.40;;;10.00;;
7879;SDS011;3985;49.366;2.738;2022-10-31T14:51:48;14.00;;;10.00;;
7879;SDS011;3985;49.366;2.738;2022-10-31T14:54:18;12.20;;;9.80;;
7879;SDS011;3985;49.366;2.738;2022-10-31T14:56:57;10.20;;;10.20;;
7879;SDS011;3985;49.366;2.738;2022-10-31T14:59:28;8.80;;;8.80;;
7879;SDS011;3985;49.366;2.738;2022-10-31T15:01:58;11.60;;;11.60;;
7879;SDS011;3985;49.366;2.738;2022-10-31T15:04:28;10.80;;;9.80;;
7879;SDS011;3985;49.366;2.738;2022-10-31T15:06:59;14.20;;;14.20;;
7879;SDS011;3985;49.366;2.738;2022-10-31T15:09:29;10.40;;;10.40;;
7879;SDS011;3985;49.366;2.738;2022-10-31T15:12:00;11.40;;;11.40;;
7879;SDS011;3985;49.366;2.738;2022-10-31T15:14:43;11.80;;;11.80;;
7879;SDS011;3985;49.366;2.738;2022-10-31T15:17:11;9.80;;;9.80;;
7879;SDS011;3985;49.366;2.738;2022-10-31T15:19:39;10.40;;;9.60;;
7879;SDS011;3985;49.366;2.738;2022-10-31T15:22:07;12.00;;;10.00;;
7879;SDS011;3985;49.366;2.738;2022-10-31T15:24:40;12.80;;;11.20;;
7879;SDS011;3985;49.366;2.738;2022-10-31T15:27:12;11.20;;;10.20;;
7879;SDS011;3985;49.366;2.738;2022-10-31T15:29:47;10.60;;;9.00;;
7879;SDS011;3985;49.366;2.738;2022-10-31T15:32:18;10.60;;;9.00;;